Terminal Aerodrome Forecast
Issued by NWS Newport/Morehead City, NC

Home | Current Version | Previous Version | Text Only | Print | Product List | Glossary On
Versions: 1 2 3 4 5 6 7 8 9 10 11 12 13 14 15 16 17 18 19
271
FTUS42 KMHX 301448 AAA
TAFEWN
TAF AMD
KEWN 301448Z 3015/0112 20009KT P6SM VCSH BKN015 OVC030
      TEMPO 3016/3017 1SM +SHRA
     FM301700 20014G24KT P6SM VCSH SCT020 BKN040
     FM302200 20012G22KT P6SM SCT030 BKN150
     FM010500 21014G24KT 5SM SHRA SCT010 BKN025
     FM011000 24010KT P6SM SCT025 BKN050=

USA.gov is the U.S. government's official web portal to all federal, state and local government web resources and services.